Time;durP1;ratioP1;P1;durP2;ratioP2;P2;SDS_P1;SDS_P2;PMS_P1;PMS_P2;Temp;Humidity;BMP_temperature;BMP_pressure;BME280_temperature;BME280_humidity;BME280_pressure;Samples;Min_cycle;Max_cycle;Signal;HPM_P1;HPM_P2
2021/09/29 00:01:44;;;;;;;1.40;1.40;;;;;;;;;;5028156;28;20061;-56
2021/09/29 00:04:11;;;;;;;1.45;1.30;;;;;;;;;;5030786;28;20099;-56
2021/09/29 00:06:38;;;;;;;1.45;1.45;;;;;;;;;;5030978;28;20045;-57
2021/09/29 00:09:05;;;;;;;2.03;1.40;;;;;;;;;;5033116;28;20068;-56
2021/09/29 00:11:31;;;;;;;1.40;1.40;;;;;;;;;;5030770;28;20049;-56
2021/09/29 00:13:58;;;;;;;2.63;1.58;;;;;;;;;;5030732;28;20121;-56
2021/09/29 00:16:25;;;;;;;2.60;1.75;;;;;;;;;;5029580;28;20045;-57
2021/09/29 00:18:52;;;;;;;1.52;1.42;;;;;;;;;;5029276;28;20047;-56
2021/09/29 00:21:18;;;;;;;2.65;1.40;;;;;;;;;;5030701;28;20132;-57
2021/09/29 00:23:47;;;;;;;1.95;1.65;;;;;;;;;;5030620;28;20060;-56
2021/09/29 00:26:14;;;;;;;1.73;1.65;;;;;;;;;;5030465;28;20410;-56
2021/09/29 00:28:41;;;;;;;1.67;1.58;;;;;;;;;;5025188;28;20112;-57
2021/09/29 00:31:22;;;;;;;3.53;1.40;;;;;;;;;;5029812;28;20099;-58
2021/09/29 00:33:50;;;;;;;2.35;1.88;;;;;;;;;;5028306;28;20127;-56
2021/09/29 00:36:17;;;;;;;1.58;1.52;;;;;;;;;;5029116;28;20522;-56
2021/09/29 00:38:44;;;;;;;1.67;1.58;;;;;;;;;;5029845;28;20124;-57
2021/09/29 00:41:10;;;;;;;1.40;1.40;;;;;;;;;;5030924;28;20053;-56
2021/09/29 00:43:37;;;;;;;1.55;1.55;;;;;;;;;;5028102;28;20033;-56
2021/09/29 00:46:03;;;;;;;2.53;2.47;;;;;;;;;;5028536;28;20541;-56
2021/09/29 00:48:30;;;;;;;2.70;2.60;;;;;;;;;;5030036;28;20448;-57
2021/09/29 00:50:58;;;;;;;2.22;2.13;;;;;;;;;;5029308;28;20041;-57
2021/09/29 00:53:25;;;;;;;2.83;2.72;;;;;;;;;;5031243;28;20080;-56
2021/09/29 00:55:52;;;;;;;2.33;2.22;;;;;;;;;;5026473;28;20041;-58
2021/09/29 00:58:19;;;;;;;1.98;1.83;;;;;;;;;;5030002;28;20124;-56
2021/09/29 01:00:45;;;;;;;2.97;2.72;;;;;;;;;;5030689;28;20065;-57
2021/09/29 01:03:12;;;;;;;2.85;2.75;;;;;;;;;;5028717;28;20037;-57
2021/09/29 01:05:41;;;;;;;2.70;2.60;;;;;;;;;;5029647;28;20137;-56
2021/09/29 01:08:13;;;;;;;2.55;2.42;;;;;;;;;;5030984;28;20699;-56
2021/09/29 01:10:39;;;;;;;2.42;2.33;;;;;;;;;;5027797;28;20393;-56
2021/09/29 01:13:09;;;;;;;2.78;2.67;;;;;;;;;;5026963;28;20366;-57
2021/09/29 01:15:46;;;;;;;2.72;2.35;;;;;;;;;;5016001;28;20072;-56
2021/09/29 01:18:14;;;;;;;2.53;2.35;;;;;;;;;;5029705;28;20029;-57
2021/09/29 01:20:46;;;;;;;2.95;2.78;;;;;;;;;;5028080;28;20091;-58
2021/09/29 01:23:25;;;;;;;2.33;2.10;;;;;;;;;;5030811;28;20037;-56
2021/09/29 01:25:58;;;;;;;2.22;2.10;;;;;;;;;;5023178;28;20124;-56
2021/09/29 01:28:33;;;;;;;2.17;2.03;;;;;;;;;;5020593;28;20041;-55
2021/09/29 01:31:01;;;;;;;5.50;2.63;;;;;;;;;;5029333;28;20116;-56
2021/09/29 01:33:29;;;;;;;2.28;2.17;;;;;;;;;;5028734;28;20124;-56
2021/09/29 01:35:56;;;;;;;2.17;2.17;;;;;;;;;;5015331;28;20075;-58
2021/09/29 01:38:24;;;;;;;2.08;2.08;;;;;;;;;;5030988;28;20053;-55
2021/09/29 01:40:50;;;;;;;3.13;2.88;;;;;;;;;;5029304;28;20116;-57
2021/09/29 01:43:17;;;;;;;2.85;2.75;;;;;;;;;;5028373;28;20383;-56
2021/09/29 01:45:45;;;;;;;2.70;2.50;;;;;;;;;;5027052;28;20461;-57
2021/09/29 01:48:15;;;;;;;1.73;1.60;;;;;;;;;;5028793;28;20574;-57
2021/09/29 01:50:43;;;;;;;2.45;2.45;;;;;;;;;;5028078;28;20569;-58
2021/09/29 01:53:11;;;;;;;2.63;2.55;;;;;;;;;;5028693;28;20116;-57
2021/09/29 01:55:38;;;;;;;2.03;1.90;;;;;;;;;;5029578;28;20072;-56
2021/09/29 01:58:05;;;;;;;2.78;2.58;;;;;;;;;;5028183;28;20037;-56
2021/09/29 02:00:32;;;;;;;3.20;2.22;;;;;;;;;;5028309;28;20478;-56
2021/09/29 02:03:00;;;;;;;2.10;2.08;;;;;;;;;;5027838;28;20486;-56
2021/09/29 02:05:28;;;;;;;3.00;2.50;;;;;;;;;;5028860;28;20041;-57
2021/09/29 02:07:55;;;;;;;1.80;1.80;;;;;;;;;;5029682;28;20124;-56
2021/09/29 02:10:23;;;;;;;2.22;2.13;;;;;;;;;;5026370;28;20064;-56
2021/09/29 02:12:50;;;;;;;2.95;2.78;;;;;;;;;;5025077;28;20046;-56
2021/09/29 02:15:17;;;;;;;2.65;1.90;;;;;;;;;;5025280;28;20065;-56
2021/09/29 02:17:44;;;;;;;2.75;2.65;;;;;;;;;;5022871;28;20037;-56
2021/09/29 02:20:11;;;;;;;2.20;2.10;;;;;;;;;;5025214;28;20049;-56
2021/09/29 02:22:38;;;;;;;2.05;1.85;;;;;;;;;;5017928;28;20489;-56
2021/09/29 02:25:06;;;;;;;1.83;1.83;;;;;;;;;;5028655;28;20448;-58
2021/09/29 02:27:33;;;;;;;2.20;2.10;;;;;;;;;;5026001;28;20083;-57
2021/09/29 02:30:00;;;;;;;1.90;1.80;;;;;;;;;;5027815;28;20053;-56
2021/09/29 02:32:27;;;;;;;2.22;2.13;;;;;;;;;;5032417;28;20045;-55
2021/09/29 02:34:53;;;;;;;2.70;2.60;;;;;;;;;;5031973;28;20691;-56
2021/09/29 02:37:20;;;;;;;2.15;2.15;;;;;;;;;;5028102;28;20037;-56
2021/09/29 02:39:47;;;;;;;3.92;2.58;;;;;;;;;;5029267;28;20775;-57
2021/09/29 02:42:13;;;;;;;2.60;2.40;;;;;;;;;;5028126;28;20116;-55
2021/09/29 02:44:40;;;;;;;2.00;1.90;;;;;;;;;;5027709;28;20034;-57
2021/09/29 02:47:07;;;;;;;3.10;2.78;;;;;;;;;;5028547;28;20049;-56
2021/09/29 02:49:34;;;;;;;2.95;2.95;;;;;;;;;;5021105;28;20470;-56
2021/09/29 02:52:01;;;;;;;5.60;2.75;;;;;;;;;;5019001;28;20045;-57
2021/09/29 02:54:28;;;;;;;3.00;2.90;;;;;;;;;;5028377;28;20099;-56
2021/09/29 02:56:54;;;;;;;3.55;3.25;;;;;;;;;;5026638;28;20092;-56
2021/09/29 02:59:21;;;;;;;2.35;2.25;;;;;;;;;;5024045;28;20428;-57
2021/09/29 03:01:48;;;;;;;2.90;2.38;;;;;;;;;;5027259;28;20516;-56
2021/09/29 03:04:15;;;;;;;3.47;2.70;;;;;;;;;;5027047;28;20108;-57
2021/09/29 03:06:42;;;;;;;2.58;2.45;;;;;;;;;;5028849;28;20033;-56
2021/09/29 03:09:08;;;;;;;3.05;2.85;;;;;;;;;;5027807;28;20061;-58
2021/09/29 03:11:35;;;;;;;3.15;2.95;;;;;;;;;;5023613;28;20068;-56
2021/09/29 03:14:02;;;;;;;3.13;2.92;;;;;;;;;;5027386;28;20064;-56
2021/09/29 03:16:29;;;;;;;2.15;2.10;;;;;;;;;;5027653;28;20052;-58
2021/09/29 03:18:56;;;;;;;2.58;2.58;;;;;;;;;;5028979;28;20204;-57
2021/09/29 03:21:22;;;;;;;4.00;3.70;;;;;;;;;;5027091;28;20069;-56
2021/09/29 03:23:49;;;;;;;2.45;2.35;;;;;;;;;;5028714;28;20041;-57
2021/09/29 03:26:16;;;;;;;3.17;2.97;;;;;;;;;;5025691;28;20458;-56
2021/09/29 03:28:44;;;;;;;3.13;2.83;;;;;;;;;;5017871;28;20084;-58
2021/09/29 03:31:12;;;;;;;2.83;2.65;;;;;;;;;;5028869;28;20099;-56
2021/09/29 03:33:40;;;;;;;5.18;3.53;;;;;;;;;;5027841;28;20099;-56
2021/09/29 03:36:07;;;;;;;4.38;2.90;;;;;;;;;;5027673;28;20041;-57
2021/09/29 03:38:34;;;;;;;3.80;3.60;;;;;;;;;;5026759;28;20465;-56
2021/09/29 03:41:01;;;;;;;5.03;4.93;;;;;;;;;;5027286;28;20049;-56
2021/09/29 03:43:27;;;;;;;6.35;6.05;;;;;;;;;;5027701;28;20069;-56
2021/09/29 03:45:54;;;;;;;5.93;5.72;;;;;;;;;;5027568;28;20045;-56
2021/09/29 03:48:21;;;;;;;7.60;7.50;;;;;;;;;;5027560;28;20040;-57
2021/09/29 03:50:48;;;;;;;9.15;8.75;;;;;;;;;;5024943;28;20033;-56
2021/09/29 03:53:14;;;;;;;9.40;9.13;;;;;;;;;;5023127;28;20037;-56
2021/09/29 03:55:41;;;;;;;9.57;9.35;;;;;;;;;;5030044;28;20478;-57
2021/09/29 03:58:07;;;;;;;9.23;8.70;;;;;;;;;;5031253;28;20177;-56
2021/09/29 04:00:34;;;;;;;5.43;5.15;;;;;;;;;;5030754;28;20042;-56
2021/09/29 04:03:01;;;;;;;6.10;5.80;;;;;;;;;;5030159;28;20042;-56
2021/09/29 04:05:28;;;;;;;5.40;5.30;;;;;;;;;;5030904;28;20061;-56
2021/09/29 04:07:54;;;;;;;4.20;4.10;;;;;;;;;;5030002;28;20034;-57
2021/09/29 04:10:21;;;;;;;4.32;4.22;;;;;;;;;;5019945;28;20549;-58
2021/09/29 04:12:49;;;;;;;3.25;3.03;;;;;;;;;;5028578;28;20059;-57
2021/09/29 04:15:16;;;;;;;2.00;1.90;;;;;;;;;;5029121;28;20064;-58
2021/09/29 04:17:43;;;;;;;3.40;3.30;;;;;;;;;;5031084;28;20095;-56
2021/09/29 04:20:10;;;;;;;2.70;2.70;;;;;;;;;;5027496;28;20033;-57
2021/09/29 04:22:37;;;;;;;2.70;2.35;;;;;;;;;;5020830;28;20038;-57
2021/09/29 04:25:04;;;;;;;1.83;1.75;;;;;;;;;;5032163;28;20061;-58
2021/09/29 04:27:30;;;;;;;2.33;2.22;;;;;;;;;;5030184;28;20041;-57
2021/09/29 04:29:57;;;;;;;2.17;2.17;;;;;;;;;;5029864;28;20049;-56
2021/09/29 04:32:24;;;;;;;2.53;2.42;;;;;;;;;;5029111;28;20430;-56
2021/09/29 04:34:51;;;;;;;3.42;3.00;;;;;;;;;;5028086;28;20096;-56
2021/09/29 04:37:18;;;;;;;3.15;2.80;;;;;;;;;;5028860;28;20065;-58
2021/09/29 04:39:44;;;;;;;3.03;2.92;;;;;;;;;;5017147;28;20095;-56
2021/09/29 04:42:11;;;;;;;3.85;3.75;;;;;;;;;;5029941;28;20044;-57
2021/09/29 04:44:39;;;;;;;7.30;6.88;;;;;;;;;;5029780;28;20064;-55
2021/09/29 04:47:06;;;;;;;4.15;4.00;;;;;;;;;;5030501;28;20519;-58
2021/09/29 04:49:32;;;;;;;3.58;3.55;;;;;;;;;;5028864;28;20072;-56
2021/09/29 04:51:59;;;;;;;3.63;3.53;;;;;;;;;;5027642;28;20060;-55
2021/09/29 04:54:26;;;;;;;4.25;4.15;;;;;;;;;;5029988;28;20135;-56
2021/09/29 04:56:53;;;;;;;4.43;3.53;;;;;;;;;;5028370;28;20033;-58
2021/09/29 04:59:19;;;;;;;3.97;3.75;;;;;;;;;;5030226;28;20594;-56
2021/09/29 05:01:46;;;;;;;6.20;6.10;;;;;;;;;;5026235;28;20061;-56
2021/09/29 05:04:15;;;;;;;5.15;4.95;;;;;;;;;;5019285;28;20040;-56
2021/09/29 05:06:41;;;;;;;5.57;5.18;;;;;;;;;;5028381;28;20064;-56
2021/09/29 05:09:08;;;;;;;5.93;5.70;;;;;;;;;;5022497;28;20033;-56
2021/09/29 05:11:41;;;;;;;6.63;6.32;;;;;;;;;;5027283;28;20099;-56
2021/09/29 05:14:08;;;;;;;8.07;7.97;;;;;;;;;;5028044;28;20052;-56
2021/09/29 05:16:35;;;;;;;8.52;8.40;;;;;;;;;;5029631;28;20510;-56
2021/09/29 05:19:02;;;;;;;11.60;11.25;;;;;;;;;;5026505;28;20512;-56
2021/09/29 05:21:29;;;;;;;10.00;9.57;;;;;;;;;;5027639;28;20045;-59
2021/09/29 05:23:56;;;;;;;10.95;10.60;;;;;;;;;;5030004;28;20076;-58
2021/09/29 05:26:22;;;;;;;8.25;7.55;;;;;;;;;;5027459;28;20045;-58
2021/09/29 05:28:50;;;;;;;8.63;8.02;;;;;;;;;;5025545;28;20049;-58
2021/09/29 05:31:20;;;;;;;7.93;7.40;;;;;;;;;;5030831;28;20041;-58
2021/09/29 05:33:47;;;;;;;8.35;8.15;;;;;;;;;;5027570;28;20104;-58
2021/09/29 05:36:14;;;;;;;6.20;6.05;;;;;;;;;;5029628;28;20390;-58
2021/09/29 05:38:41;;;;;;;6.10;6.00;;;;;;;;;;5029474;28;20485;-59
2021/09/29 05:41:07;;;;;;;6.25;6.15;;;;;;;;;;5028008;28;20145;-58
2021/09/29 05:43:34;;;;;;;5.15;4.95;;;;;;;;;;5029292;28;20038;-59
2021/09/29 05:46:01;;;;;;;4.35;3.92;;;;;;;;;;5024278;28;20091;-59
2021/09/29 05:48:28;;;;;;;5.47;4.07;;;;;;;;;;5027898;28;20075;-59
2021/09/29 05:50:55;;;;;;;3.72;3.42;;;;;;;;;;5027001;28;20026;-60
2021/09/29 05:53:22;;;;;;;2.92;2.72;;;;;;;;;;5029225;28;20095;-59
2021/09/29 05:55:49;;;;;;;3.42;3.15;;;;;;;;;;5029253;28;20124;-59
2021/09/29 05:58:15;;;;;;;3.60;3.35;;;;;;;;;;5021689;28;20054;-58
2021/09/29 06:00:42;;;;;;;2.53;2.42;;;;;;;;;;5025585;28;20069;-58
2021/09/29 06:03:09;;;;;;;2.95;2.90;;;;;;;;;;5028877;28;20034;-59
2021/09/29 06:05:36;;;;;;;3.05;2.92;;;;;;;;;;5029562;28;20037;-58
2021/09/29 06:08:03;;;;;;;5.00;2.80;;;;;;;;;;5026262;28;20993;-59
2021/09/29 06:10:30;;;;;;;2.03;1.95;;;;;;;;;;5023349;28;20107;-59
2021/09/29 06:12:57;;;;;;;4.10;2.72;;;;;;;;;;5025844;28;20052;-58
2021/09/29 06:15:32;;;;;;;4.55;2.80;;;;;;;;;;5029683;28;20116;-59
2021/09/29 06:18:00;;;;;;;2.85;2.75;;;;;;;;;;5027839;28;20544;-59
2021/09/29 06:20:27;;;;;;;2.80;2.60;;;;;;;;;;5029281;28;20124;-59
2021/09/29 06:22:54;;;;;;;2.75;2.65;;;;;;;;;;5028410;28;20553;-59
2021/09/29 06:25:22;;;;;;;3.83;3.45;;;;;;;;;;5028642;28;20037;-58
2021/09/29 06:27:49;;;;;;;3.13;2.63;;;;;;;;;;5028393;28;20068;-59
2021/09/29 06:30:16;;;;;;;3.47;3.17;;;;;;;;;;5028088;28;20099;-58
2021/09/29 06:32:43;;;;;;;4.35;3.33;;;;;;;;;;5027518;28;20042;-59
2021/09/29 06:35:10;;;;;;;3.38;3.22;;;;;;;;;;5028465;28;20041;-59
2021/09/29 06:37:42;;;;;;;4.80;3.10;;;;;;;;;;5028507;28;20073;-58
2021/09/29 06:40:13;;;;;;;3.10;3.00;;;;;;;;;;5028440;28;20105;-59
2021/09/29 06:42:40;;;;;;;3.72;3.42;;;;;;;;;;5027889;28;20124;-59
2021/09/29 06:45:08;;;;;;;2.97;2.67;;;;;;;;;;5026534;28;20041;-59
2021/09/29 06:47:38;;;;;;;5.10;3.03;;;;;;;;;;5028054;28;20045;-58
2021/09/29 06:50:06;;;;;;;2.83;2.63;;;;;;;;;;5028136;28;20065;-59
2021/09/29 06:52:32;;;;;;;2.97;2.88;;;;;;;;;;5020350;28;20176;-59
2021/09/29 06:54:59;;;;;;;3.03;2.92;;;;;;;;;;5029944;28;20091;-58
2021/09/29 06:57:26;;;;;;;2.88;2.58;;;;;;;;;;5028731;28;20095;-58
2021/09/29 06:59:53;;;;;;;4.38;2.85;;;;;;;;;;5028868;28;20053;-58
2021/09/29 07:02:19;;;;;;;5.25;3.03;;;;;;;;;;5027340;28;20505;-58
2021/09/29 07:04:46;;;;;;;3.58;1.98;;;;;;;;;;5022627;28;20045;-59
2021/09/29 07:07:13;;;;;;;2.97;2.88;;;;;;;;;;5028050;28;20037;-58
2021/09/29 07:09:40;;;;;;;1.75;1.65;;;;;;;;;;5027991;28;20503;-58
2021/09/29 07:12:07;;;;;;;2.45;2.00;;;;;;;;;;5026575;28;20128;-58
2021/09/29 07:14:34;;;;;;;1.70;1.60;;;;;;;;;;5028113;28;20040;-58
2021/09/29 07:17:01;;;;;;;2.15;2.10;;;;;;;;;;5026881;28;20132;-58
2021/09/29 07:19:28;;;;;;;2.40;1.90;;;;;;;;;;5022425;28;20045;-58
2021/09/29 07:21:55;;;;;;;2.65;2.50;;;;;;;;;;5027594;28;20073;-58
2021/09/29 07:24:22;;;;;;;4.78;2.28;;;;;;;;;;5027652;28;20095;-58
2021/09/29 07:26:49;;;;;;;1.75;1.75;;;;;;;;;;5029310;28;20489;-57
2021/09/29 07:29:16;;;;;;;2.30;1.73;;;;;;;;;;5029986;28;20425;-58
2021/09/29 07:31:42;;;;;;;2.53;1.50;;;;;;;;;;5030521;28;20144;-58
2021/09/29 07:34:09;;;;;;;1.05;1.00;;;;;;;;;;5030490;28;20041;-59
2021/09/29 07:36:39;;;;;;;1.88;1.35;;;;;;;;;;5031034;28;20071;-58
2021/09/29 07:39:06;;;;;;;1.83;1.73;;;;;;;;;;5031049;28;20048;-58
2021/09/29 07:41:33;;;;;;;3.50;1.73;;;;;;;;;;5031148;28;20089;-58
2021/09/29 07:44:00;;;;;;;1.27;1.17;;;;;;;;;;5030043;28;20034;-58
2021/09/29 07:46:26;;;;;;;2.05;1.88;;;;;;;;;;5024728;28;20037;-58
2021/09/29 07:48:53;;;;;;;4.20;2.47;;;;;;;;;;5029250;28;20046;-58
2021/09/29 07:51:20;;;;;;;3.67;1.20;;;;;;;;;;5031184;28;20038;-57
2021/09/29 07:53:46;;;;;;;3.40;1.63;;;;;;;;;;5031761;28;20041;-58
2021/09/29 07:56:13;;;;;;;3.33;1.75;;;;;;;;;;5032174;28;20508;-58
2021/09/29 07:58:40;;;;;;;1.73;1.73;;;;;;;;;;5027569;28;20133;-57
2021/09/29 08:01:07;;;;;;;4.20;1.83;;;;;;;;;;5028618;28;20053;-58
2021/09/29 08:03:34;;;;;;;1.90;1.80;;;;;;;;;;5025761;28;20379;-58
2021/09/29 08:06:03;;;;;;;1.77;1.35;;;;;;;;;;5031512;28;20103;-58
2021/09/29 08:08:30;;;;;;;1.00;1.00;;;;;;;;;;5032606;28;20104;-58
2021/09/29 08:10:57;;;;;;;1.75;1.65;;;;;;;;;;5032039;28;20049;-58
2021/09/29 08:13:24;;;;;;;7.25;1.70;;;;;;;;;;5027094;28;20448;-59
2021/09/29 08:15:50;;;;;;;1.55;1.45;;;;;;;;;;5031067;28;20045;-58
2021/09/29 08:18:18;;;;;;;2.97;1.10;;;;;;;;;;5030145;28;20052;-58
2021/09/29 08:20:45;;;;;;;3.03;1.00;;;;;;;;;;5028939;28;20041;-58
2021/09/29 08:23:17;;;;;;;6.28;1.30;;;;;;;;;;5030732;28;20033;-58
2021/09/29 08:26:12;;;;;;;4.55;1.20;;;;;;;;;;5030447;28;20072;-58
2021/09/29 08:29:28;;;;;;;1.63;1.10;;;;;;;;;;5023743;28;20049;-58
2021/09/29 08:31:30;;;;;;;1.45;1.35;;;;;;;;;;5022947;28;20493;-57
2021/09/29 08:44:26;;;;;;;3.45;1.10;;;;;;;;;;5017725;28;20482;-58
2021/09/29 08:47:34;;;;;;;0.90;0.90;;;;;;;;;;5026424;28;20065;-59
2021/09/29 09:17:27;;;;;;;0.80;0.80;;;;;;;;;;5028913;28;20037;-58
2021/09/29 09:19:54;;;;;;;0.70;0.70;;;;;;;;;;5028326;28;20125;-59
2021/09/29 09:22:30;;;;;;;1.20;0.73;;;;;;;;;;5030080;28;20038;-58
2021/09/29 09:24:57;;;;;;;0.90;0.90;;;;;;;;;;5029473;28;20265;-58
2021/09/29 09:27:23;;;;;;;1.10;1.00;;;;;;;;;;5030436;28;20049;-59
2021/09/29 09:29:51;;;;;;;0.95;0.80;;;;;;;;;;5029350;28;20125;-59
2021/09/29 09:32:20;;;;;;;0.90;0.90;;;;;;;;;;5030220;28;20080;-58
2021/09/29 09:34:46;;;;;;;1.00;0.90;;;;;;;;;;5029190;28;20045;-58
2021/09/29 09:37:16;;;;;;;2.03;0.85;;;;;;;;;;5027410;28;20600;-59
2021/09/29 09:39:43;;;;;;;1.30;0.90;;;;;;;;;;5028262;28;20041;-59
2021/09/29 09:42:10;;;;;;;0.90;0.90;;;;;;;;;;5028678;28;20365;-59
2021/09/29 09:44:38;;;;;;;1.20;0.80;;;;;;;;;;5029977;28;20413;-58
2021/09/29 09:47:12;;;;;;;0.80;0.80;;;;;;;;;;5026547;28;20498;-58
2021/09/29 09:49:50;;;;;;;0.60;0.60;;;;;;;;;;5028286;28;20099;-58
2021/09/29 09:52:49;;;;;;;0.60;0.60;;;;;;;;;;5028874;28;20450;-59
2021/09/29 09:55:17;;;;;;;1.95;0.70;;;;;;;;;;4987558;28;20050;-59
2021/09/29 09:57:44;;;;;;;0.70;0.70;;;;;;;;;;4986780;28;20605;-58
2021/09/29 10:00:15;;;;;;;4.13;0.70;;;;;;;;;;4985181;28;20042;-58
2021/09/29 10:02:42;;;;;;;1.77;0.70;;;;;;;;;;4985758;28;20798;-58
2021/09/29 10:05:10;;;;;;;0.60;0.60;;;;;;;;;;4985233;28;20108;-59
2021/09/29 10:07:37;;;;;;;0.70;0.70;;;;;;;;;;4987297;28;20068;-57
2021/09/29 10:23:58;;;;;;;1.25;0.60;;;;;;;;;;4985101;28;20074;-58
2021/09/29 10:26:26;;;;;;;0.60;0.60;;;;;;;;;;4986519;28;20042;-58
2021/09/29 10:29:06;;;;;;;1.33;0.60;;;;;;;;;;4981758;28;20077;-59
2021/09/29 10:34:12;;;;;;;0.80;0.80;;;;;;;;;;5028310;28;20112;-58
2021/09/29 10:42:51;;;;;;;0.60;0.60;;;;;;;;;;5018206;28;20558;-58
2021/09/29 11:27:25;;;;;;;0.60;0.60;;;;;;;;;;5032030;28;20050;-60
2021/09/29 11:31:59;;;;;;;0.73;0.57;;;;;;;;;;5032426;28;20128;-59
2021/09/29 11:34:29;;;;;;;1.60;0.50;;;;;;;;;;5030070;28;20793;-58
2021/09/29 11:39:38;;;;;;;0.55;0.55;;;;;;;;;;5022674;28;20071;-58
2021/09/29 12:09:54;;;;;;;0.60;0.60;;;;;;;;;;5014653;28;20077;-59
2021/09/29 12:12:31;;;;;;;0.60;0.60;;;;;;;;;;5030178;28;20034;-58
2021/09/29 12:14:59;;;;;;;0.68;0.60;;;;;;;;;;5027810;28;20083;-58
2021/09/29 12:17:27;;;;;;;0.68;0.68;;;;;;;;;;5029880;28;20089;-59
2021/09/29 12:20:08;;;;;;;0.50;0.50;;;;;;;;;;5029987;28;20080;-57
2021/09/29 12:22:38;;;;;;;0.60;0.60;;;;;;;;;;5029043;28;20056;-58
2021/09/29 12:25:08;;;;;;;0.60;0.60;;;;;;;;;;5037051;28;20112;-57
2021/09/29 12:27:39;;;;;;;0.60;0.60;;;;;;;;;;5026121;28;20037;-58
2021/09/29 12:30:29;;;;;;;1.55;0.60;;;;;;;;;;5030660;28;20413;-58
2021/09/29 12:36:38;;;;;;;0.60;0.60;;;;;;;;;;5024959;28;20045;-57
2021/09/29 12:39:16;;;;;;;0.70;0.70;;;;;;;;;;5024040;28;20095;-57
2021/09/29 12:41:50;;;;;;;0.60;0.60;;;;;;;;;;5028480;28;20607;-47
2021/09/29 12:44:18;;;;;;;0.70;0.70;;;;;;;;;;5027412;28;20068;-48
2021/09/29 12:46:50;;;;;;;0.70;0.70;;;;;;;;;;5028019;28;20071;-47
2021/09/29 12:49:21;;;;;;;1.23;0.60;;;;;;;;;;5026497;28;20640;-46
2021/09/29 12:52:01;;;;;;;0.60;0.60;;;;;;;;;;5028044;28;20048;-46
2021/09/29 12:54:28;;;;;;;0.70;0.70;;;;;;;;;;5018048;28;20080;-46
2021/09/29 12:56:55;;;;;;;0.85;0.70;;;;;;;;;;5022852;28;20453;-47
2021/09/29 12:59:22;;;;;;;0.80;0.63;;;;;;;;;;5028359;28;20150;-49
2021/09/29 13:01:48;;;;;;;1.05;1.05;;;;;;;;;;5027888;28;20064;-48
2021/09/29 13:04:16;;;;;;;0.60;0.60;;;;;;;;;;5028247;28;20053;-47
2021/09/29 13:06:43;;;;;;;0.60;0.60;;;;;;;;;;5020431;28;20136;-48
2021/09/29 13:09:10;;;;;;;0.50;0.50;;;;;;;;;;5022979;28;20049;-47
2021/09/29 13:11:37;;;;;;;1.80;0.60;;;;;;;;;;5026519;28;20037;-47
2021/09/29 13:14:04;;;;;;;1.15;0.70;;;;;;;;;;5028732;28;20072;-47
2021/09/29 13:16:32;;;;;;;0.80;0.70;;;;;;;;;;5013388;28;20515;-48
2021/09/29 13:19:15;;;;;;;0.70;0.70;;;;;;;;;;5027818;28;20041;-47
2021/09/29 13:21:58;;;;;;;0.70;0.70;;;;;;;;;;5026102;28;20128;-49
2021/09/29 13:27:28;;;;;;;0.70;0.70;;;;;;;;;;5029125;28;20630;-46
2021/09/29 13:38:30;;;;;;;1.80;0.70;;;;;;;;;;5027975;28;20060;-45
2021/09/29 13:40:57;;;;;;;1.40;0.70;;;;;;;;;;5018474;28;20489;-49
2021/09/29 13:43:23;;;;;;;3.33;0.70;;;;;;;;;;5028203;28;20042;-46
2021/09/29 13:45:50;;;;;;;0.77;0.77;;;;;;;;;;5028710;28;20052;-49
2021/09/29 13:48:19;;;;;;;0.80;0.80;;;;;;;;;;5029637;28;20137;-46
2021/09/29 13:50:45;;;;;;;1.58;0.90;;;;;;;;;;5027794;28;20057;-49
2021/09/29 13:53:13;;;;;;;1.75;0.80;;;;;;;;;;5018737;28;20034;-49
2021/09/29 13:55:41;;;;;;;1.85;0.70;;;;;;;;;;5023723;28;20428;-46
2021/09/29 13:58:17;;;;;;;0.75;0.75;;;;;;;;;;5029868;28;20068;-46
2021/09/29 14:30:54;;;;;;;1.45;1.45;;;;;;;;;;5011083;28;20136;-46
2021/09/29 14:33:29;;;;;;;1.05;1.05;;;;;;;;;;5027652;28;20045;-45
2021/09/29 14:35:56;;;;;;;1.17;1.00;;;;;;;;;;5029004;28;20078;-46
2021/09/29 14:38:23;;;;;;;1.20;1.10;;;;;;;;;;5027689;28;20052;-46
2021/09/29 14:40:50;;;;;;;3.00;1.20;;;;;;;;;;5027443;28;20049;-46
2021/09/29 14:43:17;;;;;;;1.27;1.17;;;;;;;;;;5028288;28;20056;-46
2021/09/29 14:45:44;;;;;;;1.25;1.20;;;;;;;;;;5025365;28;20038;-50
2021/09/29 14:48:11;;;;;;;1.20;1.20;;;;;;;;;;5020633;28;20049;-49
2021/09/29 14:50:38;;;;;;;1.48;1.20;;;;;;;;;;5028853;28;20120;-47
2021/09/29 14:53:05;;;;;;;1.20;1.20;;;;;;;;;;5026328;28;20486;-46
2021/09/29 14:55:33;;;;;;;1.30;1.27;;;;;;;;;;5027991;28;20080;-45
2021/09/29 14:58:00;;;;;;;1.23;1.23;;;;;;;;;;5024400;28;20064;-45
2021/09/29 15:00:30;;;;;;;2.08;1.17;;;;;;;;;;5021546;28;20044;-46
2021/09/29 15:02:58;;;;;;;1.50;1.35;;;;;;;;;;5028715;28;20042;-47
2021/09/29 15:05:26;;;;;;;1.35;1.13;;;;;;;;;;5027291;28;20033;-46
2021/09/29 15:07:53;;;;;;;1.17;1.17;;;;;;;;;;5027748;28;20045;-46
2021/09/29 15:10:20;;;;;;;1.15;1.00;;;;;;;;;;5028305;28;20034;-45
2021/09/29 15:12:47;;;;;;;1.20;1.20;;;;;;;;;;5026909;28;20103;-45
2021/09/29 15:15:23;;;;;;;1.17;1.17;;;;;;;;;;5023228;28;20104;-46
2021/09/29 15:17:56;;;;;;;1.80;1.15;;;;;;;;;;5020780;28;20120;-46
2021/09/29 15:20:49;;;;;;;1.77;1.20;;;;;;;;;;5026988;28;20037;-44
2021/09/29 15:31:32;;;;;;;3.17;1.30;;;;;;;;;;5022285;28;19921;-46
2021/09/29 15:47:54;;;;;;;1.70;1.70;;;;;;;;;;5025749;28;20046;-45
2021/09/29 15:51:24;;;;;;;2.55;2.38;;;;;;;;;;5017702;28;20518;-46
2021/09/29 15:58:36;;;;;;;2.38;2.17;;;;;;;;;;5018589;28;20050;-47
2021/09/29 16:01:09;;;;;;;3.05;1.95;;;;;;;;;;5029927;28;20444;-46
2021/09/29 16:19:26;;;;;;;2.70;2.60;;;;;;;;;;5027304;28;20129;-46
2021/09/29 16:30:27;;;;;;;2.20;2.10;;;;;;;;;;5025451;28;20797;-47
2021/09/29 16:37:46;;;;;;;3.05;2.85;;;;;;;;;;5026569;28;20033;-46
2021/09/29 16:40:13;;;;;;;3.20;2.95;;;;;;;;;;5029830;28;20049;-47
2021/09/29 16:42:39;;;;;;;3.28;3.08;;;;;;;;;;5029805;28;20099;-45
2021/09/29 16:45:10;;;;;;;3.63;3.30;;;;;;;;;;5029875;28;20422;-46
2021/09/29 16:47:37;;;;;;;3.15;2.95;;;;;;;;;;5030767;28;20041;-45
2021/09/29 16:50:08;;;;;;;3.38;3.08;;;;;;;;;;5021879;28;20037;-44
2021/09/29 16:55:05;;;;;;;3.53;3.28;;;;;;;;;;5028039;28;20506;-45
2021/09/29 16:57:37;;;;;;;3.40;3.20;;;;;;;;;;5013083;28;20044;-45
2021/09/29 17:00:09;;;;;;;3.17;3.08;;;;;;;;;;5025300;28;20418;-46
2021/09/29 17:02:37;;;;;;;3.80;3.60;;;;;;;;;;5023635;28;20465;-45
2021/09/29 17:05:04;;;;;;;3.65;3.35;;;;;;;;;;5023737;28;20049;-48
2021/09/29 17:07:30;;;;;;;3.95;3.65;;;;;;;;;;5028404;28;20042;-44
2021/09/29 17:09:57;;;;;;;3.78;3.53;;;;;;;;;;5027798;28;20049;-44
2021/09/29 17:12:25;;;;;;;3.97;3.75;;;;;;;;;;5028717;28;20095;-47
2021/09/29 17:14:52;;;;;;;3.33;3.22;;;;;;;;;;5030281;28;20049;-47
2021/09/29 17:17:18;;;;;;;3.50;3.20;;;;;;;;;;5024237;28;20378;-44
2021/09/29 17:19:46;;;;;;;4.05;3.83;;;;;;;;;;5019751;28;20052;-46
2021/09/29 17:22:14;;;;;;;4.28;3.92;;;;;;;;;;5028398;28;20103;-46
2021/09/29 17:24:41;;;;;;;4.82;4.55;;;;;;;;;;5026892;28;20041;-56
2021/09/29 17:27:11;;;;;;;5.18;4.88;;;;;;;;;;5024209;28;20037;-55
2021/09/29 17:29:38;;;;;;;4.65;4.55;;;;;;;;;;5027735;28;20403;-55
2021/09/29 17:32:14;;;;;;;4.55;4.15;;;;;;;;;;5027172;28;20037;-55
2021/09/29 17:34:58;;;;;;;4.22;3.80;;;;;;;;;;5026269;28;20041;-56
2021/09/29 17:48:06;;;;;;;6.47;4.88;;;;;;;;;;5027492;28;20037;-55
2021/09/29 17:53:50;;;;;;;4.53;4.32;;;;;;;;;;5026471;28;20080;-54
2021/09/29 17:56:17;;;;;;;5.43;5.03;;;;;;;;;;5022788;28;20477;-55
2021/09/29 17:58:44;;;;;;;4.95;4.75;;;;;;;;;;5029059;28;20425;-55
2021/09/29 18:01:13;;;;;;;5.65;5.22;;;;;;;;;;5026495;28;20045;-54
2021/09/29 18:03:53;;;;;;;4.60;4.35;;;;;;;;;;5029827;28;20038;-54
2021/09/29 18:06:26;;;;;;;5.85;5.43;;;;;;;;;;5026509;28;20041;-55
2021/09/29 18:08:53;;;;;;;6.60;6.07;;;;;;;;;;5029411;28;20045;-55
2021/09/29 18:11:19;;;;;;;5.60;5.22;;;;;;;;;;5026690;28;20033;-54
2021/09/29 18:13:46;;;;;;;5.32;4.95;;;;;;;;;;5025124;28;20069;-55
2021/09/29 18:16:13;;;;;;;5.72;5.43;;;;;;;;;;5027849;28;20552;-51
2021/09/29 18:18:40;;;;;;;5.25;4.85;;;;;;;;;;5025975;28;20037;-55
2021/09/29 18:21:07;;;;;;;4.80;4.60;;;;;;;;;;5027388;28;20112;-54
2021/09/29 18:23:34;;;;;;;5.32;4.35;;;;;;;;;;5029247;28;20068;-55
2021/09/29 18:26:17;;;;;;;7.60;4.82;;;;;;;;;;5020624;28;20038;-55
2021/09/29 18:28:46;;;;;;;5.35;4.95;;;;;;;;;;5029709;28;20045;-55
2021/09/29 18:31:13;;;;;;;8.98;5.38;;;;;;;;;;5027780;28;20060;-55
2021/09/29 18:33:40;;;;;;;5.75;5.25;;;;;;;;;;5027664;28;20049;-54
2021/09/29 18:36:10;;;;;;;4.88;4.72;;;;;;;;;;5023534;28;20046;-55
2021/09/29 18:38:39;;;;;;;6.57;6.13;;;;;;;;;;5027119;28;20680;-55
2021/09/29 18:41:26;;;;;;;5.47;5.25;;;;;;;;;;5020173;28;20085;-55
2021/09/29 18:43:53;;;;;;;6.55;6.15;;;;;;;;;;5022098;28;20081;-54
2021/09/29 18:46:22;;;;;;;5.10;4.90;;;;;;;;;;5024826;28;20064;-55
2021/09/29 18:48:55;;;;;;;5.90;5.07;;;;;;;;;;5027514;28;20437;-55
2021/09/29 18:51:23;;;;;;;5.25;4.80;;;;;;;;;;5023497;28;20726;-54
2021/09/29 19:07:54;;;;;;;5.88;5.57;;;;;;;;;;5022361;28;20092;-55
2021/09/29 19:10:21;;;;;;;5.38;5.07;;;;;;;;;;5025786;28;20049;-55
2021/09/29 19:12:48;;;;;;;5.72;5.45;;;;;;;;;;5022369;28;20087;-55
2021/09/29 19:15:16;;;;;;;4.75;4.55;;;;;;;;;;5025654;28;20045;-54
2021/09/29 19:17:44;;;;;;;5.70;5.43;;;;;;;;;;5024791;28;20472;-54
2021/09/29 19:20:11;;;;;;;5.32;4.88;;;;;;;;;;5031555;28;20058;-55